Meteo Giornale » Osservazioni meteo Stati Uniti (USA) » Marianna
ore: 20:53 - Osservazioni Meteo Marianna
Lat. 30° 50' N Lon. 85° 11' W Alt. 34 metri s.l.m.
29 °C
Sereno
Temp. 24 Ore
23 °C
34 °C
Nord
0 Km/h
Dew point 22 °C
Umidità 66 %
Visibilità 10 Km
Il sole sorge alle ore 06:16
Il sole tramonta alle ore 19:05
| Data e Ora | Cielo e Fenomeni | T °C | DP °C | Um. % | Pres. hPa | Vis. km | Vento km/h | |
|---|---|---|---|---|---|---|---|---|
| Oggi h: 20:53 | Sereno | 29 | 22 | 66 | 1017 | 10 | N 0 | |
| Oggi h: 19:53 | Sereno | 28 | 23 | 74 | 1016 | 10 | E/NE 7.4 | |
| Oggi h: 18:53 | Sereno | 31 | 23 | 62 | 1016 | 10 | E 7.4 | |
| Oggi h: 17:53 | Sereno | 32 | 22 | 55 | 1016 | 10 | E 11.1 | |
| Oggi h: 16:53 | Nuvoloso | 33 | 21 | 49 | 1016 | 10 | E 14.8 | |
| Oggi h: 15:53 | Poco Nuvoloso | 34 | 21 | 46 | 1016 | 10 | E 16.7 | |
| Oggi h: 14:53 | Sereno | 33 | 21 | 49 | 1017 | 10 | E 14.8 | |
| Oggi h: 13:53 | Poco Nuvoloso | 33 | 22 | 52 | 1017 | 10 | E/NE 11.1 | |
| Oggi h: 12:53 | Poco Nuvoloso | 32 | 22 | 55 | 1018 | 10 | E/NE 14.8 | |
| Oggi h: 11:53 | Molto Nuvoloso | 32 | 23 | 59 | 1019 | 10 | N/NE 13 | |
| Oggi h: 10:53 | Poco Nuvoloso | 29 | 23 | 70 | 1019 | 10 | E/NE 13 | |
| Oggi h: 09:53 | Sereno | 29 | 24 | 74 | 1019 | 10 | E/NE 11.1 | |
| Oggi h: 08:53 | Nuvoloso | 27 | 24 | 83 | 1019 | 10 | E/NE 14.8 | |
| Oggi h: 08:00 | Nuvoloso | 26 | 23 | 83 | 1019 | 10 | E/NE 14.8 | |
| Oggi h: 07:53 | Molto Nuvoloso | 25 | 23 | 88 | 1019 | 10 | E/NE 14.8 | |
| Oggi h: 07:34 | Molto Nuvoloso | 24 | 23 | 94 | 1019 | 10 | NE 13 | |
| Oggi h: 07:14 | Poco Nuvoloso | 24 | 23 | 94 | 1018 | 10 | NE 9.3 | |
| Oggi h: 06:53 | Sereno | 23 | 23 | 100 | 1018 | 10 | E/NE 9.3 | |
| Oggi h: 05:53 | Sereno | 23 | 22 | 94 | 1017 | 10 | E/NE 11.1 | |
| Oggi h: 04:53 | Sereno | 23 | 22 | 94 | 1017 | 10 | E/NE 9.3 | |
| Oggi h: 03:53 | Sereno | 23 | 22 | 94 | 1017 | 10 | NE 9.3 | |
| Oggi h: 02:53 | Sereno | 24 | 23 | 94 | 1017 | 10 | NE 9.3 | |
| Oggi h: 01:53 | Sereno | 24 | 23 | 94 | 1017 | 10 | N 5.5 | |
| Oggi h: 00:53 | Sereno | 24 | 23 | 94 | 1017 | 10 | N 0 | |
| Ieri h: 23:53 | Sereno | 24 | 23 | 94 | 1017 | 10 | E 7.4 | |
| Ieri h: 22:53 | Sereno | 26 | 23 | 83 | 1017 | 10 | N 0 | |
| Ieri h: 21:53 | Sereno | 26 | 23 | 83 | 1018 | 10 | N 0 | |



